Pagrindinis puslapis
METAR-TAF:

METAR-TAF

Oro uostai :

Wadi ad-Dawasir, Saudo Arabija

platuma: 20-30N, ilguma: 045-12E, Aukštis: 624 m

Dabartinis oras

Ataskaita buvo paskelbta 37 minutes, ne 04:00 UTC
Vėjas 4 kt iš Vakarų
Temperatūra 16°C
Drėgmė 31%
Slėgis 1018 hPa
Matomumas 10 km arba daugiau
nėra debesų žemiau 1500 m ir nėra kamuolinių lietaus debesų

METAR: OEWD 210400Z 27004KT CAVOK 16/M01 Q1018 NOSIG

Laikas: 07:37 (04:37 UTC)

Prognozė

Ataskaita buvo paskelbta 5 valandos ir 37 minutes, ne 23:00 UTC
Prognozė galioja nuo 21 metu 00 UTC su 22 metu 06 UTC
Vėjas 6 kt iš Vakarų/Šiaurės Vakarų
Matomumas 10 km arba daugiau
nėra debesų žemiau 1500 m ir nėra kamuolinių lietaus debesų
Tapsmas
nuo 21 metu 08 UTC su 21 metu 10 UTC
Vėjas 10 kt iš Šiaurės/Šiaurės Rytų
Tapsmas
nuo 21 metu 18 UTC su 21 metu 20 UTC
Vėjas 3 kt nuo kintamojo kryptimis

TAF: OEWD 202300Z 2100/2206 30006KT CAVOK BECMG 2108/2110 03010KT BECMG 2118/2120 VRB03KT

Orai ataskaitas ir orų prognozės (METAR, TAF).

turimą stotys yra geltonos ir raudonos taškus žemėlapyje.

Perkelti pele per norėdami pamatyti stoties vardą.

Tada spustelėkite, norėdami matyti oro stebėjimo ir prognozės.

Norėdami pakeisti žemėlapį: spustelėkite ant žalios mygtukų su juodo kryžiaus žemyn,; žalią mygtuką su brūkšneliu, jei norite nutolinti; arba žalių rodyklių gretimoms žemėlapius.


METAR-TAF: